sensor_id;sensor_type;location;lat;lon;timestamp;pressure;altitude;pressure_sealevel;temperature;humidity
27294;BME280;14785;52.556;13.430;2023-02-14T00:02:06;102951.53;;;10.38;100.00
27294;BME280;14785;52.556;13.430;2023-02-14T00:04:32;102956.38;;;10.46;100.00
27294;BME280;14785;52.556;13.430;2023-02-14T00:06:58;102947.91;;;10.39;100.00
27294;BME280;14785;52.556;13.430;2023-02-14T00:09:25;102945.56;;;10.35;100.00
27294;BME280;14785;52.556;13.430;2023-02-14T00:11:51;102950.66;;;10.52;100.00
27294;BME280;14785;52.556;13.430;2023-02-14T00:14:17;102946.63;;;10.18;100.00
27294;BME280;14785;52.556;13.430;2023-02-14T00:17:02;102947.53;;;10.45;100.00
27294;BME280;14785;52.556;13.430;2023-02-14T00:19:27;102947.59;;;10.70;100.00
27294;BME280;14785;52.556;13.430;2023-02-14T00:21:53;102946.31;;;10.63;100.00
27294;BME280;14785;52.556;13.430;2023-02-14T00:24:24;102946.22;;;10.38;100.00
27294;BME280;14785;52.556;13.430;2023-02-14T00:26:51;102951.09;;;10.04;100.00
27294;BME280;14785;52.556;13.430;2023-02-14T00:29:21;102938.97;;;10.00;100.00
27294;BME280;14785;52.556;13.430;2023-02-14T00:31:47;102942.31;;;9.75;100.00
27294;BME280;14785;52.556;13.430;2023-02-14T00:34:14;102943.97;;;10.18;100.00
27294;BME280;14785;52.556;13.430;2023-02-14T00:36:40;102933.34;;;10.18;100.00
27294;BME280;14785;52.556;13.430;2023-02-14T00:39:07;102930.25;;;10.38;100.00
27294;BME280;14785;52.556;13.430;2023-02-14T00:41:33;102942.88;;;10.49;100.00
27294;BME280;14785;52.556;13.430;2023-02-14T00:43:59;102946.91;;;10.54;100.00
27294;BME280;14785;52.556;13.430;2023-02-14T00:46:26;102943.56;;;10.65;100.00
27294;BME280;14785;52.556;13.430;2023-02-14T00:48:52;102941.97;;;10.62;100.00
27294;BME280;14785;52.556;13.430;2023-02-14T00:51:18;102933.13;;;10.35;100.00
27294;BME280;14785;52.556;13.430;2023-02-14T00:53:45;102936.72;;;10.61;100.00
27294;BME280;14785;52.556;13.430;2023-02-14T00:56:11;102940.38;;;10.72;100.00
27294;BME280;14785;52.556;13.430;2023-02-14T00:58:37;102939.56;;;10.84;100.00
27294;BME280;14785;52.556;13.430;2023-02-14T01:01:02;102935.88;;;10.99;100.00
27294;BME280;14785;52.556;13.430;2023-02-14T01:03:28;102934.38;;;10.56;100.00
27294;BME280;14785;52.556;13.430;2023-02-14T01:05:54;102939.63;;;10.70;100.00
27294;BME280;14785;52.556;13.430;2023-02-14T01:08:20;102928.69;;;10.48;100.00
27294;BME280;14785;52.556;13.430;2023-02-14T01:10:45;102933.41;;;10.31;100.00
27294;BME280;14785;52.556;13.430;2023-02-14T01:13:12;102928.50;;;10.25;100.00
27294;BME280;14785;52.556;13.430;2023-02-14T01:15:39;102927.09;;;10.46;100.00
27294;BME280;14785;52.556;13.430;2023-02-14T01:18:05;102921.88;;;10.44;100.00
27294;BME280;14785;52.556;13.430;2023-02-14T01:20:31;102918.81;;;10.50;100.00
27294;BME280;14785;52.556;13.430;2023-02-14T01:22:56;102922.00;;;10.55;100.00
27294;BME280;14785;52.556;13.430;2023-02-14T01:25:22;102911.47;;;10.54;100.00
27294;BME280;14785;52.556;13.430;2023-02-14T01:27:47;102910.31;;;10.58;100.00
27294;BME280;14785;52.556;13.430;2023-02-14T01:30:13;102921.81;;;10.58;100.00
27294;BME280;14785;52.556;13.430;2023-02-14T01:32:40;102918.31;;;10.70;100.00
27294;BME280;14785;52.556;13.430;2023-02-14T01:35:07;102915.66;;;10.70;100.00
27294;BME280;14785;52.556;13.430;2023-02-14T01:37:34;102914.44;;;10.88;100.00
27294;BME280;14785;52.556;13.430;2023-02-14T01:39:59;102901.88;;;10.90;100.00
27294;BME280;14785;52.556;13.430;2023-02-14T01:42:26;102904.94;;;10.84;100.00
27294;BME280;14785;52.556;13.430;2023-02-14T01:45:02;102900.81;;;10.80;100.00
27294;BME280;14785;52.556;13.430;2023-02-14T01:47:31;102906.63;;;10.73;100.00
27294;BME280;14785;52.556;13.430;2023-02-14T01:50:02;102905.22;;;10.67;100.00
27294;BME280;14785;52.556;13.430;2023-02-14T01:52:36;102895.69;;;10.77;100.00
27294;BME280;14785;52.556;13.430;2023-02-14T01:55:09;102895.09;;;10.60;100.00
27294;BME280;14785;52.556;13.430;2023-02-14T01:57:52;102893.22;;;10.35;100.00
27294;BME280;14785;52.556;13.430;2023-02-14T02:00:20;102896.69;;;10.36;100.00
27294;BME280;14785;52.556;13.430;2023-02-14T02:03:06;102897.84;;;10.19;100.00
27294;BME280;14785;52.556;13.430;2023-02-14T02:05:34;102894.16;;;10.34;100.00
27294;BME280;14785;52.556;13.430;2023-02-14T02:08:01;102889.59;;;10.36;100.00
27294;BME280;14785;52.556;13.430;2023-02-14T02:10:27;102894.47;;;10.56;100.00
27294;BME280;14785;52.556;13.430;2023-02-14T02:12:53;102890.38;;;10.77;100.00
27294;BME280;14785;52.556;13.430;2023-02-14T02:15:21;102900.66;;;10.69;100.00
27294;BME280;14785;52.556;13.430;2023-02-14T02:31:31;102905.81;;;10.05;100.00
27294;BME280;14785;52.556;13.430;2023-02-14T02:43:27;102895.94;;;10.60;100.00
27294;BME280;14785;52.556;13.430;2023-02-14T02:46:07;102900.72;;;10.55;100.00
27294;BME280;14785;52.556;13.430;2023-02-14T02:49:03;102910.72;;;10.52;100.00
27294;BME280;14785;52.556;13.430;2023-02-14T02:51:38;102910.47;;;10.42;100.00
27294;BME280;14785;52.556;13.430;2023-02-14T02:54:40;102904.94;;;10.45;100.00
27294;BME280;14785;52.556;13.430;2023-02-14T02:57:20;102902.13;;;10.34;100.00
27294;BME280;14785;52.556;13.430;2023-02-14T02:59:48;102905.81;;;10.46;100.00
27294;BME280;14785;52.556;13.430;2023-02-14T03:02:22;102899.78;;;10.56;100.00
27294;BME280;14785;52.556;13.430;2023-02-14T03:04:53;102899.22;;;10.51;100.00
27294;BME280;14785;52.556;13.430;2023-02-14T03:10:24;102898.97;;;10.42;100.00
27294;BME280;14785;52.556;13.430;2023-02-14T03:20:59;102901.00;;;10.38;100.00
27294;BME280;14785;52.556;13.430;2023-02-14T03:23:31;102891.59;;;10.59;100.00
27294;BME280;14785;52.556;13.430;2023-02-14T03:36:13;102894.88;;;10.50;100.00
27294;BME280;14785;52.556;13.430;2023-02-14T03:41:36;102895.06;;;10.21;100.00
27294;BME280;14785;52.556;13.430;2023-02-14T03:44:06;102894.00;;;10.23;100.00
27294;BME280;14785;52.556;13.430;2023-02-14T03:46:44;102889.84;;;10.46;100.00
27294;BME280;14785;52.556;13.430;2023-02-14T03:49:16;102885.59;;;10.56;100.00
27294;BME280;14785;52.556;13.430;2023-02-14T03:51:44;102897.53;;;10.50;100.00
27294;BME280;14785;52.556;13.430;2023-02-14T03:54:12;102889.78;;;10.33;100.00
27294;BME280;14785;52.556;13.430;2023-02-14T03:56:48;102887.88;;;10.35;100.00
27294;BME280;14785;52.556;13.430;2023-02-14T03:59:23;102890.28;;;10.52;100.00
27294;BME280;14785;52.556;13.430;2023-02-14T04:01:55;102888.88;;;10.47;100.00
27294;BME280;14785;52.556;13.430;2023-02-14T04:04:26;102889.50;;;10.38;100.00
27294;BME280;14785;52.556;13.430;2023-02-14T04:06:55;102889.38;;;10.39;100.00
27294;BME280;14785;52.556;13.430;2023-02-14T04:09:20;102885.75;;;10.40;100.00
27294;BME280;14785;52.556;13.430;2023-02-14T04:11:46;102887.19;;;10.58;100.00
27294;BME280;14785;52.556;13.430;2023-02-14T04:14:14;102879.63;;;10.52;100.00
27294;BME280;14785;52.556;13.430;2023-02-14T04:16:41;102893.22;;;10.48;100.00
27294;BME280;14785;52.556;13.430;2023-02-14T04:19:25;102884.72;;;10.02;100.00
27294;BME280;14785;52.556;13.430;2023-02-14T04:21:50;102890.25;;;9.99;100.00
27294;BME280;14785;52.556;13.430;2023-02-14T04:24:17;102885.22;;;10.09;100.00
27294;BME280;14785;52.556;13.430;2023-02-14T04:26:42;102880.00;;;10.34;100.00
27294;BME280;14785;52.556;13.430;2023-02-14T04:29:21;102877.38;;;10.46;100.00
27294;BME280;14785;52.556;13.430;2023-02-14T04:31:47;102886.47;;;10.56;100.00
27294;BME280;14785;52.556;13.430;2023-02-14T04:34:13;102889.38;;;10.39;100.00
27294;BME280;14785;52.556;13.430;2023-02-14T04:36:39;102891.28;;;10.37;100.00
27294;BME280;14785;52.556;13.430;2023-02-14T04:39:05;102888.75;;;9.95;100.00
27294;BME280;14785;52.556;13.430;2023-02-14T04:41:31;102882.84;;;10.04;100.00
27294;BME280;14785;52.556;13.430;2023-02-14T04:43:56;102888.72;;;10.09;100.00
27294;BME280;14785;52.556;13.430;2023-02-14T04:46:21;102875.06;;;10.01;100.00
27294;BME280;14785;52.556;13.430;2023-02-14T04:48:47;102879.41;;;10.02;100.00
27294;BME280;14785;52.556;13.430;2023-02-14T04:51:12;102877.78;;;10.14;100.00
27294;BME280;14785;52.556;13.430;2023-02-14T04:53:38;102877.59;;;10.17;100.00
27294;BME280;14785;52.556;13.430;2023-02-14T04:56:04;102874.00;;;10.18;100.00
27294;BME280;14785;52.556;13.430;2023-02-14T04:58:30;102869.97;;;10.25;100.00
27294;BME280;14785;52.556;13.430;2023-02-14T05:00:55;102868.09;;;10.27;100.00
27294;BME280;14785;52.556;13.430;2023-02-14T05:03:21;102858.94;;;10.43;100.00
27294;BME280;14785;52.556;13.430;2023-02-14T05:05:46;102862.78;;;10.13;100.00
27294;BME280;14785;52.556;13.430;2023-02-14T05:08:12;102866.31;;;10.13;100.00
27294;BME280;14785;52.556;13.430;2023-02-14T05:10:38;102859.97;;;10.28;100.00
27294;BME280;14785;52.556;13.430;2023-02-14T05:13:03;102858.94;;;10.43;100.00
27294;BME280;14785;52.556;13.430;2023-02-14T05:15:29;102863.19;;;10.33;100.00
27294;BME280;14785;52.556;13.430;2023-02-14T05:17:54;102857.56;;;10.11;100.00
27294;BME280;14785;52.556;13.430;2023-02-14T05:20:20;102858.34;;;10.13;100.00
27294;BME280;14785;52.556;13.430;2023-02-14T05:22:45;102855.81;;;10.24;100.00
27294;BME280;14785;52.556;13.430;2023-02-14T05:25:11;102855.97;;;10.35;100.00
27294;BME280;14785;52.556;13.430;2023-02-14T05:27:36;102850.94;;;10.31;100.00
27294;BME280;14785;52.556;13.430;2023-02-14T05:30:01;102850.94;;;10.04;100.00
27294;BME280;14785;52.556;13.430;2023-02-14T05:32:27;102852.41;;;10.22;100.00
27294;BME280;14785;52.556;13.430;2023-02-14T05:34:52;102854.78;;;10.27;100.00
27294;BME280;14785;52.556;13.430;2023-02-14T05:37:18;102855.19;;;10.33;100.00
27294;BME280;14785;52.556;13.430;2023-02-14T05:39:43;102851.06;;;10.29;100.00
27294;BME280;14785;52.556;13.430;2023-02-14T05:42:09;102853.94;;;10.12;100.00
27294;BME280;14785;52.556;13.430;2023-02-14T05:44:34;102855.81;;;10.24;100.00
27294;BME280;14785;52.556;13.430;2023-02-14T05:46:59;102860.00;;;10.41;100.00
27294;BME280;14785;52.556;13.430;2023-02-14T05:49:25;102845.94;;;10.26;100.00
27294;BME280;14785;52.556;13.430;2023-02-14T05:51:50;102852.66;;;10.32;100.00
27294;BME280;14785;52.556;13.430;2023-02-14T05:54:16;102856.38;;;10.29;100.00
27294;BME280;14785;52.556;13.430;2023-02-14T05:56:41;102840.88;;;10.48;100.00
27294;BME280;14785;52.556;13.430;2023-02-14T05:59:07;102844.34;;;10.36;100.00
27294;BME280;14785;52.556;13.430;2023-02-14T06:01:32;102845.72;;;10.29;100.00
27294;BME280;14785;52.556;13.430;2023-02-14T06:03:58;102848.28;;;10.31;100.00
27294;BME280;14785;52.556;13.430;2023-02-14T06:06:23;102848.78;;;10.23;100.00
27294;BME280;14785;52.556;13.430;2023-02-14T06:08:48;102851.09;;;10.15;100.00
27294;BME280;14785;52.556;13.430;2023-02-14T06:11:14;102851.13;;;10.54;100.00
27294;BME280;14785;52.556;13.430;2023-02-14T06:13:43;102840.94;;;10.61;100.00
27294;BME280;14785;52.556;13.430;2023-02-14T06:16:09;102849.63;;;10.50;100.00
27294;BME280;14785;52.556;13.430;2023-02-14T06:18:35;102856.59;;;10.39;100.00
27294;BME280;14785;52.556;13.430;2023-02-14T06:21:00;102851.41;;;10.11;100.00
27294;BME280;14785;52.556;13.430;2023-02-14T06:23:26;102861.75;;;10.01;100.00
27294;BME280;14785;52.556;13.430;2023-02-14T06:25:54;102850.38;;;10.13;100.00
27294;BME280;14785;52.556;13.430;2023-02-14T06:28:19;102851.88;;;10.30;100.00
27294;BME280;14785;52.556;13.430;2023-02-14T06:30:46;102860.19;;;10.25;100.00
27294;BME280;14785;52.556;13.430;2023-02-14T06:33:11;102856.50;;;10.14;100.00
27294;BME280;14785;52.556;13.430;2023-02-14T06:35:37;102857.19;;;10.03;100.00
27294;BME280;14785;52.556;13.430;2023-02-14T06:38:02;102858.72;;;9.93;100.00
27294;BME280;14785;52.556;13.430;2023-02-14T06:40:28;102853.63;;;9.76;100.00
27294;BME280;14785;52.556;13.430;2023-02-14T06:42:53;102848.63;;;10.12;100.00
27294;BME280;14785;52.556;13.430;2023-02-14T06:45:18;102856.25;;;10.04;100.00
27294;BME280;14785;52.556;13.430;2023-02-14T06:47:44;102853.34;;;10.21;100.00
27294;BME280;14785;52.556;13.430;2023-02-14T06:50:10;102850.75;;;10.07;100.00
27294;BME280;14785;52.556;13.430;2023-02-14T06:52:36;102856.91;;;10.34;100.00
27294;BME280;14785;52.556;13.430;2023-02-14T06:55:02;102858.94;;;10.43;100.00
27294;BME280;14785;52.556;13.430;2023-02-14T06:57:29;102852.41;;;10.61;100.00
27294;BME280;14785;52.556;13.430;2023-02-14T06:59:54;102851.72;;;10.45;100.00
27294;BME280;14785;52.556;13.430;2023-02-14T07:02:20;102859.31;;;10.51;100.00
27294;BME280;14785;52.556;13.430;2023-02-14T07:04:45;102847.28;;;10.58;100.00
27294;BME280;14785;52.556;13.430;2023-02-14T07:07:12;102847.91;;;10.49;100.00
27294;BME280;14785;52.556;13.430;2023-02-14T07:09:38;102851.28;;;10.39;100.00
27294;BME280;14785;52.556;13.430;2023-02-14T07:12:03;102847.78;;;10.38;100.00
27294;BME280;14785;52.556;13.430;2023-02-14T07:14:29;102850.03;;;10.44;100.00
27294;BME280;14785;52.556;13.430;2023-02-14T07:16:54;102851.31;;;10.51;100.00
27294;BME280;14785;52.556;13.430;2023-02-14T07:19:20;102841.03;;;10.59;100.00
27294;BME280;14785;52.556;13.430;2023-02-14T07:21:46;102849.53;;;10.64;100.00
27294;BME280;14785;52.556;13.430;2023-02-14T07:24:11;102839.03;;;10.75;100.00
27294;BME280;14785;52.556;13.430;2023-02-14T07:26:36;102851.38;;;10.76;100.00
27294;BME280;14785;52.556;13.430;2023-02-14T07:29:02;102842.66;;;10.74;100.00
27294;BME280;14785;52.556;13.430;2023-02-14T07:31:27;102849.13;;;10.70;100.00
27294;BME280;14785;52.556;13.430;2023-02-14T07:33:53;102853.09;;;10.90;100.00
27294;BME280;14785;52.556;13.430;2023-02-14T07:36:18;102855.44;;;10.94;100.00
27294;BME280;14785;52.556;13.430;2023-02-14T07:38:44;102853.09;;;11.02;100.00
27294;BME280;14785;52.556;13.430;2023-02-14T07:41:10;102858.84;;;10.96;100.00
27294;BME280;14785;52.556;13.430;2023-02-14T07:43:35;102851.63;;;10.98;100.00
27294;BME280;14785;52.556;13.430;2023-02-14T07:46:01;102845.97;;;11.03;100.00
27294;BME280;14785;52.556;13.430;2023-02-14T07:48:28;102854.34;;;10.59;100.00
27294;BME280;14785;52.556;13.430;2023-02-14T07:50:54;102847.44;;;10.30;100.00
27294;BME280;14785;52.556;13.430;2023-02-14T07:53:23;102844.34;;;10.36;100.00
27294;BME280;14785;52.556;13.430;2023-02-14T07:55:50;102849.41;;;10.53;100.00
27294;BME280;14785;52.556;13.430;2023-02-14T07:58:16;102844.75;;;10.69;100.00
27294;BME280;14785;52.556;13.430;2023-02-14T08:00:41;102843.69;;;10.59;100.00
27294;BME280;14785;52.556;13.430;2023-02-14T08:03:07;102845.41;;;10.73;100.00
27294;BME280;14785;52.556;13.430;2023-02-14T08:05:32;102847.50;;;10.55;100.00
27294;BME280;14785;52.556;13.430;2023-02-14T08:07:58;102847.50;;;10.55;100.00
27294;BME280;14785;52.556;13.430;2023-02-14T08:10:23;102846.75;;;10.53;100.00
27294;BME280;14785;52.556;13.430;2023-02-14T08:12:48;102851.78;;;10.58;100.00
27294;BME280;14785;52.556;13.430;2023-02-14T08:15:24;102857.09;;;10.70;100.00
27294;BME280;14785;52.556;13.430;2023-02-14T08:18:09;102851.31;;;10.51;100.00
27294;BME280;14785;52.556;13.430;2023-02-14T08:20:34;102861.13;;;10.24;100.00
27294;BME280;14785;52.556;13.430;2023-02-14T08:23:00;102865.09;;;10.31;100.00
27294;BME280;14785;52.556;13.430;2023-02-14T08:25:25;102867.09;;;10.01;100.00
27294;BME280;14785;52.556;13.430;2023-02-14T08:27:51;102874.03;;;10.30;100.00
27294;BME280;14785;52.556;13.430;2023-02-14T08:30:16;102876.59;;;10.32;100.00
27294;BME280;14785;52.556;13.430;2023-02-14T08:32:42;102876.69;;;10.30;100.00
27294;BME280;14785;52.556;13.430;2023-02-14T08:35:07;102879.56;;;10.27;100.00
27294;BME280;14785;52.556;13.430;2023-02-14T08:37:33;102881.00;;;10.45;100.00
27294;BME280;14785;52.556;13.430;2023-02-14T08:39:58;102884.91;;;10.66;100.00
27294;BME280;14785;52.556;13.430;2023-02-14T08:42:24;102876.31;;;11.00;100.00
27294;BME280;14785;52.556;13.430;2023-02-14T08:44:50;102881.75;;;10.99;100.00
27294;BME280;14785;52.556;13.430;2023-02-14T08:47:15;102882.69;;;10.85;100.00
27294;BME280;14785;52.556;13.430;2023-02-14T08:49:41;102886.66;;;10.92;100.00
27294;BME280;14785;52.556;13.430;2023-02-14T08:52:06;102884.84;;;11.05;100.00
27294;BME280;14785;52.556;13.430;2023-02-14T08:54:31;102886.09;;;10.87;100.00
27294;BME280;14785;52.556;13.430;2023-02-14T08:56:57;102883.00;;;10.81;100.00
27294;BME280;14785;52.556;13.430;2023-02-14T08:59:23;102881.63;;;10.75;100.00
27294;BME280;14785;52.556;13.430;2023-02-14T09:01:48;102885.81;;;10.53;100.00
27294;BME280;14785;52.556;13.430;2023-02-14T09:04:13;102886.88;;;10.50;100.00
27294;BME280;14785;52.556;13.430;2023-02-14T09:06:39;102880.75;;;10.62;100.00
27294;BME280;14785;52.556;13.430;2023-02-14T09:09:05;102880.69;;;11.14;100.00
27294;BME280;14785;52.556;13.430;2023-02-14T09:11:31;102880.38;;;10.93;100.00
27294;BME280;14785;52.556;13.430;2023-02-14T09:13:56;102884.09;;;11.41;100.00
27294;BME280;14785;52.556;13.430;2023-02-14T09:16:23;102889.75;;;10.86;100.00
27294;BME280;14785;52.556;13.430;2023-02-14T09:18:51;102892.09;;;11.03;100.00
27294;BME280;14785;52.556;13.430;2023-02-14T09:21:20;102889.75;;;11.36;100.00
27294;BME280;14785;52.556;13.430;2023-02-14T09:23:46;102893.25;;;10.99;100.00
27294;BME280;14785;52.556;13.430;2023-02-14T09:26:13;102886.03;;;11.01;100.00
27294;BME280;14785;52.556;13.430;2023-02-14T09:28:39;102890.59;;;11.49;100.00
27294;BME280;14785;52.556;13.430;2023-02-14T09:33:42;102883.56;;;11.11;100.00
27294;BME280;14785;52.556;13.430;2023-02-14T09:36:08;102883.66;;;10.84;100.00
27294;BME280;14785;52.556;13.430;2023-02-14T09:38:45;102890.59;;;11.24;100.00
27294;BME280;14785;52.556;13.430;2023-02-14T09:41:47;102885.28;;;11.24;100.00
27294;BME280;14785;52.556;13.430;2023-02-14T09:44:37;102881.97;;;10.83;100.00
27294;BME280;14785;52.556;13.430;2023-02-14T09:49:49;102895.38;;;10.55;100.00
27294;BME280;14785;52.556;13.430;2023-02-14T09:52:17;102891.03;;;11.43;100.00
27294;BME280;14785;52.556;13.430;2023-02-14T09:54:50;102890.41;;;11.40;100.00
27294;BME280;14785;52.556;13.430;2023-02-14T09:59:58;102891.44;;;11.50;100.00
27294;BME280;14785;52.556;13.430;2023-02-14T10:05:25;102894.44;;;11.45;100.00
27294;BME280;14785;52.556;13.430;2023-02-14T10:10:39;102893.69;;;10.93;100.00
27294;BME280;14785;52.556;13.430;2023-02-14T10:17:04;102902.53;;;11.56;100.00
27294;BME280;14785;52.556;13.430;2023-02-14T10:19:01;102888.00;;;11.86;100.00
27294;BME280;14785;52.556;13.430;2023-02-14T10:21:32;102890.19;;;11.30;100.00
27294;BME280;14785;52.556;13.430;2023-02-14T10:26:56;102888.44;;;11.80;100.00
27294;BME280;14785;52.556;13.430;2023-02-14T10:29:26;102881.22;;;11.69;100.00
27294;BME280;14785;52.556;13.430;2023-02-14T10:32:00;102884.09;;;11.79;100.00
27294;BME280;14785;52.556;13.430;2023-02-14T10:37:53;102873.13;;;11.45;100.00
27294;BME280;14785;52.556;13.430;2023-02-14T10:40:34;102873.13;;;11.33;100.00
27294;BME280;14785;52.556;13.430;2023-02-14T10:48:24;102864.38;;;10.81;100.00
27294;BME280;14785;52.556;13.430;2023-02-14T10:54:03;102874.28;;;11.67;100.00
27294;BME280;14785;52.556;13.430;2023-02-14T10:56:38;102858.22;;;11.18;100.00
27294;BME280;14785;52.556;13.430;2023-02-14T10:59:17;102866.28;;;11.54;100.00
27294;BME280;14785;52.556;13.430;2023-02-14T11:01:46;102868.28;;;12.12;100.00
27294;BME280;14785;52.556;13.430;2023-02-14T11:04:15;102868.44;;;11.98;100.00
27294;BME280;14785;52.556;13.430;2023-02-14T11:06:40;102866.31;;;11.41;100.00
27294;BME280;14785;52.556;13.430;2023-02-14T11:09:08;102866.06;;;11.70;100.00
27294;BME280;14785;52.556;13.430;2023-02-14T11:11:46;102862.09;;;11.88;100.00
27294;BME280;14785;52.556;13.430;2023-02-14T11:14:26;102864.59;;;11.53;100.00
27294;BME280;14785;52.556;13.430;2023-02-14T11:16:55;102858.84;;;11.34;100.00
27294;BME280;14785;52.556;13.430;2023-02-14T11:19:30;102856.25;;;11.45;100.00
27294;BME280;14785;52.556;13.430;2023-02-14T11:21:57;102854.88;;;11.52;100.00
27294;BME280;14785;52.556;13.430;2023-02-14T11:24:35;102855.63;;;11.67;100.00
27294;BME280;14785;52.556;13.430;2023-02-14T11:29:43;102856.94;;;12.21;100.00
27294;BME280;14785;52.556;13.430;2023-02-14T11:32:23;102851.41;;;11.88;100.00
27294;BME280;14785;52.556;13.430;2023-02-14T11:34:59;102854.75;;;11.79;100.00
27294;BME280;14785;52.556;13.430;2023-02-14T11:37:29;102843.53;;;12.10;100.00
27294;BME280;14785;52.556;13.430;2023-02-14T11:39:58;102851.00;;;11.81;100.00
27294;BME280;14785;52.556;13.430;2023-02-14T11:42:42;102844.31;;;11.63;100.00
27294;BME280;14785;52.556;13.430;2023-02-14T11:45:37;102842.94;;;11.57;100.00
27294;BME280;14785;52.556;13.430;2023-02-14T11:50:35;102841.78;;;11.98;100.00
27294;BME280;14785;52.556;13.430;2023-02-14T11:53:01;102845.44;;;11.35;100.00
27294;BME280;14785;52.556;13.430;2023-02-14T11:55:30;102834.88;;;11.83;100.00
27294;BME280;14785;52.556;13.430;2023-02-14T11:58:00;102843.22;;;11.78;100.00
27294;BME280;14785;52.556;13.430;2023-02-14T12:00:26;102838.09;;;12.11;100.00
27294;BME280;14785;52.556;13.430;2023-02-14T12:02:59;102829.72;;;12.05;100.00
27294;BME280;14785;52.556;13.430;2023-02-14T12:05:46;102829.44;;;11.35;100.00
27294;BME280;14785;52.556;13.430;2023-02-14T12:08:13;102825.59;;;11.39;100.00
27294;BME280;14785;52.556;13.430;2023-02-14T12:10:40;102820.66;;;11.95;100.00
27294;BME280;14785;52.556;13.430;2023-02-14T12:21:05;102806.25;;;10.23;100.00
27294;BME280;14785;52.556;13.430;2023-02-14T12:26:30;102798.47;;;10.20;100.00
27294;BME280;14785;52.556;13.430;2023-02-14T12:31:35;102794.13;;;10.32;100.00
27294;BME280;14785;52.556;13.430;2023-02-14T12:34:02;102784.03;;;10.49;100.00
27294;BME280;14785;52.556;13.430;2023-02-14T12:47:55;102752.56;;;11.06;100.00
27294;BME280;14785;52.556;13.430;2023-02-14T12:58:36;102742.94;;;11.88;100.00
27294;BME280;14785;52.556;13.430;2023-02-14T13:06:28;102745.69;;;11.63;100.00
27294;BME280;14785;52.556;13.430;2023-02-14T13:11:43;102737.88;;;11.73;100.00
27294;BME280;14785;52.556;13.430;2023-02-14T13:17:18;102746.78;;;11.12;100.00
27294;BME280;14785;52.556;13.430;2023-02-14T13:20:02;102740.94;;;10.69;100.00
27294;BME280;14785;52.556;13.430;2023-02-14T13:22:31;102740.19;;;11.41;100.00
27294;BME280;14785;52.556;13.430;2023-02-14T13:25:03;102731.47;;;11.75;100.00
27294;BME280;14785;52.556;13.430;2023-02-14T13:27:36;102729.16;;;12.05;100.00
27294;BME280;14785;52.556;13.430;2023-02-14T13:30:07;102731.94;;;11.20;100.00
27294;BME280;14785;52.556;13.430;2023-02-14T13:32:40;102725.50;;;10.37;100.00
27294;BME280;14785;52.556;13.430;2023-02-14T13:35:07;102724.03;;;10.58;100.00
27294;BME280;14785;52.556;13.430;2023-02-14T13:37:34;102727.00;;;10.53;100.00
27294;BME280;14785;52.556;13.430;2023-02-14T13:40:05;102726.16;;;10.65;100.00
27294;BME280;14785;52.556;13.430;2023-02-14T13:50:54;102724.88;;;10.83;100.00
27294;BME280;14785;52.556;13.430;2023-02-14T13:53:33;102723.25;;;10.43;100.00
27294;BME280;14785;52.556;13.430;2023-02-14T13:56:01;102720.19;;;10.49;100.00
27294;BME280;14785;52.556;13.430;2023-02-14T13:58:28;102724.94;;;11.07;100.00
27294;BME280;14785;52.556;13.430;2023-02-14T14:00:56;102726.94;;;11.28;100.00
27294;BME280;14785;52.556;13.430;2023-02-14T14:06:07;102721.06;;;9.98;100.00
27294;BME280;14785;52.556;13.430;2023-02-14T14:11:04;102708.25;;;9.64;100.00
27294;BME280;14785;52.556;13.430;2023-02-14T14:16:32;102720.97;;;11.25;100.00
27294;BME280;14785;52.556;13.430;2023-02-14T14:21:43;102711.56;;;10.83;100.00
27294;BME280;14785;52.556;13.430;2023-02-14T14:24:27;102709.97;;;10.43;100.00
27294;BME280;14785;52.556;13.430;2023-02-14T14:29:36;102697.75;;;11.14;100.00
27294;BME280;14785;52.556;13.430;2023-02-14T14:34:56;102704.50;;;9.54;100.00
27294;BME280;14785;52.556;13.430;2023-02-14T14:37:25;102710.41;;;10.50;100.00
27294;BME280;14785;52.556;13.430;2023-02-14T14:39:54;102701.19;;;11.04;100.00
27294;BME280;14785;52.556;13.430;2023-02-14T14:42:24;102702.53;;;10.61;100.00
27294;BME280;14785;52.556;13.430;2023-02-14T14:45:02;102704.00;;;10.27;100.00
27294;BME280;14785;52.556;13.430;2023-02-14T14:47:36;102698.47;;;10.55;100.00
27294;BME280;14785;52.556;13.430;2023-02-14T14:50:13;102688.53;;;10.95;100.00
27294;BME280;14785;52.556;13.430;2023-02-14T14:52:46;102695.81;;;10.80;100.00
27294;BME280;14785;52.556;13.430;2023-02-14T14:55:21;102692.81;;;10.35;100.00
27294;BME280;14785;52.556;13.430;2023-02-14T14:58:03;102693.03;;;9.93;100.00
27294;BME280;14785;52.556;13.430;2023-02-14T15:00:35;102691.34;;;9.12;100.00
27294;BME280;14785;52.556;13.430;2023-02-14T15:03:22;102690.66;;;9.49;100.00
27294;BME280;14785;52.556;13.430;2023-02-14T15:05:50;102684.03;;;9.56;100.00
27294;BME280;14785;52.556;13.430;2023-02-14T15:08:36;102679.66;;;9.94;100.00
27294;BME280;14785;52.556;13.430;2023-02-14T15:13:57;102674.69;;;10.02;100.00
27294;BME280;14785;52.556;13.430;2023-02-14T15:16:32;102681.88;;;9.48;100.00